• Join FlightAware (Why Join?)
  • Login
  • US Flag 
09:10AM EDT


 

Airport Tracker/Info


-or-


 

Live Flight TrackerFlight Track Log ✈ JUS196 ✈ 22-Apr-2013 ✈ KSHV - MMTO / TLC

Flight Track Log - Related Links

Times and Time Zones

All times are in EDT time to prevent confusion due to time zone crossing. See the JUS196 flight status page for this flight to view local times or setup timezone preferences in your user account.

Time Position Orientation Groundspeed Altitude Reporting Facility
EDT Latitude Longitude Course Direction KTS MPH feet Rate Location/Type
02:48PM 32.4250 -93.8128 143° Southeast 154 177 2,000  Level Fort Worth Center
02:49PM 32.3869 -93.7969 161° South 177 204 3,100 2,100 Climbing Fort Worth Center
02:51PM 32.2903 -93.8525 206° Southwest 271 312 7,700 2,880 Climbing Fort Worth Center
02:52PM 32.2147 -93.9119 214° Southwest 283 326 11,100 2,880 Climbing Fort Worth Center
02:53PM 32.1494 -93.9611 213° Southwest 302 348 13,600 2,880 Climbing Fort Worth Center
02:54PM 32.0636 -94.0281 213° Southwest 328 377 16,900 2,640 Climbing Fort Worth Center
02:55PM 31.9919 -94.0797 211° Southwest 340 391 18,900 2,040 Climbing Fort Worth Center
02:56PM 31.9058 -94.1417 211° Southwest 351 404 21,000 2,100 Climbing Fort Worth Center
02:57PM 31.8158 -94.2108 213° Southwest 367 422 23,100 1,740 Climbing Fort Worth Center
02:59PM 31.5889 -94.3869 213° Southwest 421 484 26,900 1,680 Climbing Houston Center
03:00PM 31.4886 -94.4667 214° Southwest 432 497 28,900 1,860 Climbing Houston Center
03:01PM 31.3900 -94.5453 214° Southwest 428 493 30,800 1,680 Climbing Houston Center
03:02PM 31.2900 -94.6222 213° Southwest 427 491 32,400 1,380 Climbing Houston Center
03:03PM 31.1711 -94.7122 213° Southwest 442 509 33,700 720 Climbing Houston Center
03:04PM 31.0636 -94.7603 201° Southwest 448 516 34,000 120 Climbing Houston Center
03:05PM 30.9542 -94.8189 205° Southwest 436 502 34,000 -60 Level Houston Center
03:06PM 30.8403 -94.8719 202° Southwest 438 504 33,900  Descending Houston Center
03:07PM 30.7075 -94.9408 204° Southwest 435 501 34,000  Climbing Houston Center
03:08PM 30.5972 -94.9986 204° Southwest 434 499 34,000 -60 Level Houston Center
03:09PM 30.4839 -95.0508 202° Southwest 436 502 33,900 -60 Descending Houston Center
03:10PM 30.3750 -95.1061 204° Southwest 437 503 33,900  Level Houston Center
03:11PM 30.2764 -95.1842 214° Southwest 431 496 34,000  Climbing Houston Center
03:12PM 30.1814 -95.2631 216° Southwest 425 489 34,000  Level Houston Center
03:13PM 30.0661 -95.3544 214° Southwest 422 486 34,000 -60 Level Houston Center
03:14PM 29.9675 -95.4267 212° Southwest 423 487 33,900  Descending Houston Center
03:15PM 29.8692 -95.4994 213° Southwest 424 488 34,000  Climbing Houston Center
03:17PM 29.7708 -95.5692 212° Southwest 420 483 33,900 -60 Descending Houston Center
03:18PM 29.6533 -95.6533 212° Southwest 419 482 33,900  Level Houston Center
03:19PM 29.5567 -95.7239 212° Southwest 415 478 34,000  Climbing Houston Center
03:20PM 29.4494 -95.7800 205° Southwest 432 497 34,000 -60 Level Houston Center
03:21PM 29.3406 -95.8275 201° Southwest 426 490 33,900  Descending Houston Center
03:22PM 29.2303 -95.8767 201° Southwest 426 490 34,000  Climbing Houston Center
03:23PM 29.1028 -95.9414 204° Southwest 420 483 34,000 -60 Level Houston Center
03:24PM 28.9914 -95.9986 204° Southwest 415 478 33,900 -60 Descending Houston Center
03:25PM 28.8842 -96.0528 204° Southwest 418 481 33,900  Level Houston Center
03:26PM 28.7769 -96.1033 202° Southwest 416 479 33,900  Level Houston Center
03:27PM 28.6708 -96.1567 204° Southwest 415 478 33,900  Level Houston Center
03:28PM 28.5661 -96.2075 203° Southwest 411 473 33,900  Level Houston Center
03:29PM 28.4600 -96.2575 203° Southwest 411 473 33,900  Level Houston Center
03:30PM 28.3547 -96.3089 203° Southwest 411 473 33,900  Level Houston Center
03:31PM 28.2292 -96.3700 203° Southwest 408 470 33,900  Level Houston Center
03:32PM 28.1244 -96.4211 203° Southwest 408 470 33,900  Level Houston Center
03:33PM 28.0194 -96.4728 203° Southwest 411 473 33,900  Level Houston Center
03:34PM 27.9142 -96.5231 203° Southwest 410 472 33,900  Level Houston Center
03:35PM 27.8072 -96.5728 202° Southwest 413 475 33,900  Level Houston Center
03:36PM 27.7008 -96.6244 203° Southwest 415 478 33,900  Level Houston Center
03:37PM 27.5725 -96.6856 203° Southwest 416 479 33,900  Level Houston Center
03:38PM 27.4658 -96.7358 203° Southwest 416 479 33,900  Level Houston Center
03:39PM 27.3600 -96.7861 203° Southwest 414 476 33,900  Level Houston Center
03:40PM 27.2444 -96.8392 202° Southwest 417 480 33,900  Level Houston Center
03:41PM 27.1392 -96.8900 203° Southwest 414 476 33,900  Level Houston Center
03:42PM 27.0319 -96.9394 202° Southwest 414 476 33,900  Level Houston Center
03:43PM 26.9269 -96.9897 203° Southwest 412 474 33,900  Level Houston Center
03:45PM 26.7994 -97.0481 202° Southwest 411 473 33,900  Level Houston Center
03:46PM 26.6933 -97.1000 204° Southwest 409 471 33,900  Level Houston Center
03:47PM 26.5786 -97.1519 202° Southwest 411 473 34,000  Climbing Houston Center
03:48PM 26.4722 -97.2003 202° Southwest 414 476 33,900 -60 Descending Houston Center
03:49PM 26.3667 -97.2506 203° Southwest 411 473 33,900  Level Houston Center
03:50PM 26.2522 -97.3042 203° Southwest 410 472 34,000  Climbing Houston Center
03:51PM 26.1458 -97.3531 202° Southwest 411 473 34,000  Level Houston Center
03:52PM 26.0297 -97.4047 202° Southwest 414 476 34,000  Level Houston Center
03:53PM 25.9228 -97.4531 202° Southwest 412 474 34,000  Level Houston Center
03:55PM 25.7609 -97.5207 212° Southwest  Level FlightAware Approximate
04:02PM 25.1170 -97.9753 213° Southwest  Level FlightAware Approximate
04:03PM 25.0251 -98.0403 213° Southwest  Level FlightAware Approximate
04:04PM 24.9332 -98.1050 213° Southwest  Level FlightAware Approximate
04:05PM 24.8409 -98.1692 212° Southwest  Level FlightAware Approximate
04:06PM 24.7484 -98.2330 212° Southwest  Level FlightAware Approximate
04:07PM 24.6560 -98.2968 212° Southwest  Level FlightAware Approximate
04:08PM 24.5635 -98.3605 212° Southwest  Level FlightAware Approximate
04:09PM 24.4711 -98.4241 212° Southwest  Level FlightAware Approximate
04:10PM 24.3785 -98.4876 212° Southwest  Level FlightAware Approximate
04:11PM 24.2860 -98.5510 212° Southwest  Level FlightAware Approximate
04:12PM 24.1934 -98.6143 212° Southwest  Level FlightAware Approximate
04:13PM 24.1008 -98.6776 212° Southwest  Level FlightAware Approximate
04:14PM 24.0082 -98.7407 212° Southwest  Level FlightAware Approximate
04:15PM 23.9155 -98.8038 212° Southwest  Level FlightAware Approximate
04:16PM 23.8228 -98.8667 212° Southwest  Level FlightAware Approximate
04:17PM 23.7302 -98.9296 212° Southwest  Level FlightAware Approximate
04:18PM 23.6311 -98.9783 201° Southwest  Level FlightAware Approximate
04:19PM 23.5289 -99.0201 201° Southwest  Level FlightAware Approximate
04:20PM 23.4268 -99.0619 201° Southwest  Level FlightAware Approximate
04:21PM 23.3249 -99.1042 205° Southwest  Level FlightAware Approximate
04:22PM 23.2235 -99.1480 201° Southwest  Level FlightAware Approximate
04:23PM 23.1213 -99.1897 201° Southwest  Level FlightAware Approximate
04:24PM 23.0192 -99.2314 201° Southwest  Level FlightAware Approximate
04:25PM 22.9171 -99.2730 201° Southwest  Level FlightAware Approximate
04:26PM 22.8149 -99.3146 201° Southwest  Level FlightAware Approximate
04:27PM 22.7127 -99.3560 201° Southwest  Level FlightAware Approximate
04:28PM 22.6105 -99.3975 201° Southwest  Level FlightAware Approximate
04:29PM 22.5083 -99.4388 201° Southwest  Level FlightAware Approximate
04:30PM 22.4061 -99.4801 200° South  Level FlightAware Approximate
04:31PM 22.3039 -99.5214 200° South  Level FlightAware Approximate
04:32PM 22.2017 -99.5625 200° South  Level FlightAware Approximate
04:33PM 22.0991 -99.6025 199° South  Level FlightAware Approximate
04:34PM 21.9960 -99.6413 199° South  Level FlightAware Approximate
04:35PM 21.8930 -99.6800 199° South  Level FlightAware Approximate
04:36PM 21.7900 -99.7187 199° South  Level FlightAware Approximate
04:37PM 21.6869 -99.7572 199° South  Level FlightAware Approximate
04:38PM 21.5839 -99.7958 199° South  Level FlightAware Approximate
04:39PM 21.4808 -99.8343 200° South  Level FlightAware Approximate
04:40PM 21.3786 -99.8753 200° South  Level FlightAware Approximate
04:41PM 21.2764 -99.9162 200° South  Level FlightAware Approximate
04:42PM 21.1742 -99.9570 200° South  Level FlightAware Approximate
04:43PM 21.0740 -100.0031 197° South  Level FlightAware Approximate
04:44PM 20.9698 -100.0378 197° South  Level FlightAware Approximate
04:45PM 20.8691 -100.0821 205° Southwest  Level FlightAware Approximate
04:46PM 20.7689 -100.1280 199° South  Level FlightAware Approximate
04:47PM 20.6656 -100.1655 199° South  Level FlightAware Approximate
04:48PM 20.5629 -100.1618 159° South  Level FlightAware Approximate
04:49PM 20.4638 -100.1135 154° Southeast  Level FlightAware Approximate
04:50PM 20.3659 -100.0622 154° Southeast  Level FlightAware Approximate
04:51PM 20.2679 -100.0109 154° Southeast  Level FlightAware Approximate
04:52PM 20.1695 -99.9607 158° South  Level FlightAware Approximate
04:53PM 20.0683 -99.9174 158° South  Level FlightAware Approximate
04:54PM 19.9676 -99.8726 157° South  Level FlightAware Approximate
04:55PM 19.8679 -99.8256 155° Southeast  Level FlightAware Approximate
04:56PM 19.7692 -99.7762 155° Southeast  Level FlightAware Approximate
04:57PM 19.6705 -99.7269 155° Southeast  Level FlightAware Approximate
04:58PM 19.5747 -99.6715 151° Southeast  Level FlightAware Approximate
04:59PM 19.4737 -99.6285 155° Southeast  Level FlightAware Approximate
05:00PM 19.3751 -99.5792 155° Southeast  Level FlightAware Approximate
05:01PM 19.3500 -99.5667 North  Level FlightAware Approximate
05:02PM 19.3371 -99.5660 North  Level Estimated
05:03PM 19.3371 -99.5660 North  Level Estimated
05:04PM 19.3371 -99.5660 North  Level Estimated
05:05PM 19.3371 -99.5660 North  Level Estimated
05:06PM 19.3371 -99.5660 North  Level Estimated
05:07PM 19.3371 -99.5660 North  Level Estimated
05:08PM 19.3371 -99.5660 North  Level Estimated
05:09PM 19.3371 -99.5660 North  Level Estimated
05:10PM 19.3371 -99.5660 North  Level Estimated
05:11PM 19.3371 -99.5660 North  Level Estimated
05:12PM 19.3371 -99.5660 North  Level Estimated
05:13PM 19.3371 -99.5660 North  Level Estimated
05:14PM 19.3371 -99.5660 North  Level Estimated
05:15PM 19.3371 -99.5660 North  Level Estimated
05:16PM 19.3371 -99.5660 North  Level Estimated
05:17PM 19.3371 -99.5660 North  Level Estimated
05:18PM 19.3371 -99.5660 North  Level Estimated